Ardoch, North Dakota
Current Conditions -  °F | °C
As of 6:15 AM on Monday 20 Oct 2014 (Local Time) from KGAF Reporting Station
Clear Clear  
Wind Chill: 31°   Ceiling: Unl
Heat Index: 37°   Visibility: 10mi
Dew Point: 37°   Wind: 8mph
Humidity: 100%   Direction: 330°NNW
Pressure: 30.04"   Gusts: NA
Location:  48.21°N, 97.34°W
Report Text: KGAF 201115Z AUTO 33007KT 10SM CLR 03/03 A3004 RMK AO2
Loading
Personal Weather Stations






























Interactive Weather Map
Tropical Storm Tracking
New forecast layout! Learn more

10-Day Weather Forecast

Advertisements
Track Severe Weather on mobile